Time;durP1;ratioP1;P1;durP2;ratioP2;P2;SDS_P1;SDS_P2;PMS_P1;PMS_P2;Temp;Humidity;BMP_temperature;BMP_pressure;BME280_temperature;BME280_humidity;BME280_pressure;Samples;Min_cycle;Max_cycle;Signal;HPM_P1;HPM_P2
2023/09/30 00:00:14;;;;;;;24.10;16.90;;;;;;;11.39;100.00;99167.45;137559;1274;22522;-78
2023/09/30 00:03:35;;;;;;;21.40;15.80;;;;;;;11.40;100.00;99166.06;137427;1274;22573;-79
2023/09/30 00:06:36;;;;;;;25.50;17.40;;;;;;;11.39;100.00;99162.05;137163;1274;22471;-79
2023/09/30 00:09:37;;;;;;;19.90;16.10;;;;;;;11.37;100.00;99162.88;136628;1274;25249;-78
2023/09/30 00:12:38;;;;;;;27.10;16.00;;;;;;;11.36;100.00;99163.58;136890;1251;22570;-79
2023/09/30 00:15:40;;;;;;;24.40;15.50;;;;;;;11.36;100.00;99163.39;136661;1274;22559;-79
2023/09/30 00:18:41;;;;;;;24.20;16.70;;;;;;;11.36;100.00;99159.39;136095;1275;22307;-80
2023/09/30 00:21:43;;;;;;;24.30;16.30;;;;;;;11.35;100.00;99160.42;136336;1267;23020;-79
2023/09/30 00:24:44;;;;;;;24.60;16.90;;;;;;;11.37;100.00;99152.60;136406;1274;24202;-79
2023/09/30 00:27:45;;;;;;;25.70;17.50;;;;;;;11.39;100.00;99150.71;136122;1275;22555;-79
2023/09/30 00:30:47;;;;;;;29.80;18.30;;;;;;;11.43;100.00;99147.45;137147;1274;22125;-80
2023/09/30 00:33:48;;;;;;;23.80;17.20;;;;;;;11.44;100.00;99143.64;135990;1274;22518;-79
2023/09/30 00:36:49;;;;;;;26.10;18.20;;;;;;;11.45;100.00;99144.88;135969;1275;24656;-80
2023/09/30 00:39:50;;;;;;;26.70;17.70;;;;;;;11.47;100.00;99140.20;135872;1274;24199;-79
2023/09/30 00:42:51;;;;;;;25.80;18.30;;;;;;;11.49;100.00;99139.17;135860;1274;24261;-80
2023/09/30 00:45:53;;;;;;;25.30;17.90;;;;;;;11.50;100.00;99134.31;135911;1274;22556;-80
2023/09/30 00:48:54;;;;;;;28.90;18.40;;;;;;;11.53;100.00;99130.50;136023;1274;22556;-80
2023/09/30 00:51:55;;;;;;;28.90;18.80;;;;;;;11.53;100.00;99128.41;136061;1274;23261;-80
2023/09/30 00:54:56;;;;;;;133.90;23.00;;;;;;;11.55;100.00;99128.09;135897;1274;22856;-80
2023/09/30 00:57:57;;;;;;;28.10;18.10;;;;;;;11.57;100.00;99129.86;136076;1274;22589;-79
2023/09/30 01:00:58;;;;;;;28.50;18.50;;;;;;;11.61;100.00;99130.77;136294;1274;22585;-81
2023/09/30 01:03:59;;;;;;;19.60;16.30;;;;;;;11.63;100.00;99130.63;136082;1274;22973;-77
2023/09/30 01:07:00;;;;;;;27.30;17.00;;;;;;;11.64;100.00;99131.34;136355;1275;22234;-78
2023/09/30 01:10:02;;;;;;;26.30;18.50;;;;;;;11.65;100.00;99130.14;136294;1274;22560;-79
2023/09/30 01:13:03;;;;;;;25.20;18.60;;;;;;;11.67;100.00;99129.11;136419;1274;22656;-79
2023/09/30 01:16:05;;;;;;;85.40;21.80;;;;;;;11.73;100.00;99133.20;136610;1274;25416;-79
2023/09/30 01:19:06;;;;;;;46.00;20.50;;;;;;;11.79;100.00;99129.29;136452;1274;22547;-78
2023/09/30 01:22:09;;;;;;;28.00;18.90;;;;;;;11.80;100.00;99126.16;135851;1274;22532;-80
2023/09/30 01:25:11;;;;;;;25.50;17.20;;;;;;;11.79;100.00;99125.27;135939;1274;22569;-78
2023/09/30 01:28:14;;;;;;;28.20;17.30;;;;;;;11.79;100.00;99127.72;135959;1274;22756;-77
2023/09/30 01:31:15;;;;;;;29.00;18.90;;;;;;;11.78;100.00;99125.79;135868;1274;22578;-79
2023/09/30 01:34:16;;;;;;;24.60;17.90;;;;;;;11.80;100.00;99130.00;135952;1274;22546;-78
2023/09/30 01:37:18;;;;;;;21.70;17.00;;;;;;;11.82;100.00;99130.73;135749;1274;23374;-77
2023/09/30 01:40:19;;;;;;;24.60;17.70;;;;;;;11.83;100.00;99131.59;135866;1274;22526;-78
2023/09/30 01:43:20;;;;;;;24.80;18.20;;;;;;;11.86;100.00;99131.45;135918;1275;22605;-78
2023/09/30 01:46:22;;;;;;;29.70;18.10;;;;;;;11.90;100.00;99134.64;135907;1274;22889;-79
2023/09/30 01:49:24;;;;;;;24.60;17.90;;;;;;;11.93;100.00;99133.11;135902;1274;22572;-78
2023/09/30 01:52:25;;;;;;;27.30;18.60;;;;;;;11.97;100.00;99133.33;135725;1274;25455;-80
2023/09/30 01:55:29;;;;;;;23.00;17.70;;;;;;;12.02;100.00;99130.23;135800;1251;24227;-78
2023/09/30 01:58:30;;;;;;;26.20;18.10;;;;;;;12.05;100.00;99131.15;135790;1274;22524;-79
2023/09/30 02:01:31;;;;;;;23.20;17.60;;;;;;;12.10;100.00;99133.63;136215;1274;22569;-79
2023/09/30 02:04:32;;;;;;;28.50;17.70;;;;;;;12.14;100.00;99131.08;135713;1274;25397;-78
2023/09/30 02:07:34;;;;;;;21.80;17.90;;;;;;;12.20;100.00;99131.14;135804;1274;22560;-78
2023/09/30 02:10:35;;;;;;;23.90;17.70;;;;;;;12.26;100.00;99127.71;135926;1275;25217;-78
2023/09/30 02:13:36;;;;;;;27.70;19.20;;;;;;;12.31;100.00;99122.36;135774;1275;22574;-79
2023/09/30 02:16:37;;;;;;;27.50;17.80;;;;;;;12.34;100.00;99120.98;135872;1274;22950;-79
2023/09/30 02:19:38;;;;;;;27.80;18.60;;;;;;;12.34;100.00;99120.46;136219;1275;22539;-78
2023/09/30 02:22:39;;;;;;;20.40;17.30;;;;;;;12.38;100.00;99120.15;137420;1275;22179;-79
2023/09/30 02:25:40;;;;;;;31.20;17.80;;;;;;;12.43;100.00;99120.02;136358;1275;22528;-78
2023/09/30 02:28:41;;;;;;;20.60;17.50;;;;;;;12.50;100.00;99117.29;136862;1275;22625;-79
2023/09/30 02:31:43;;;;;;;23.80;16.80;;;;;;;12.55;100.00;99116.63;136647;1275;22626;-79
2023/09/30 02:34:44;;;;;;;26.50;17.50;;;;;;;12.60;100.00;99113.89;136289;1275;25292;-78
2023/09/30 02:37:45;;;;;;;31.30;17.00;;;;;;;12.65;100.00;99114.96;135988;1275;22095;-78
2023/09/30 02:40:48;;;;;;;24.80;17.40;;;;;;;12.70;100.00;99113.26;135986;1275;22527;-78
2023/09/30 02:43:50;;;;;;;29.20;17.40;;;;;;;12.74;100.00;99110.85;136094;1275;22567;-77
2023/09/30 02:46:51;;;;;;;21.70;17.10;;;;;;;12.78;100.00;99107.55;136183;1275;22825;-79
2023/09/30 02:49:52;;;;;;;28.60;17.10;;;;;;;12.82;100.00;99105.31;136503;1274;24196;-79
2023/09/30 02:52:56;;;;;;;65.10;18.70;;;;;;;12.83;100.00;99106.89;136633;1275;22210;-80
2023/09/30 02:55:59;;;;;;;22.80;16.60;;;;;;;12.84;100.00;99107.42;135973;1275;25892;-79
2023/09/30 02:59:04;;;;;;;22.50;15.40;;;;;;;12.82;100.00;99110.20;135942;1275;22647;-79
2023/09/30 03:02:09;;;;;;;34.70;16.70;;;;;;;12.80;100.00;99103.38;136047;1275;22793;-79
2023/09/30 03:05:13;;;;;;;23.40;16.70;;;;;;;12.80;100.00;99101.81;135753;1275;186530;-79
2023/09/30 03:08:14;;;;;;;25.30;16.80;;;;;;;12.80;100.00;99100.58;135966;1275;22603;-78
2023/09/30 03:11:15;;;;;;;20.50;15.70;;;;;;;12.80;100.00;99103.55;135955;1275;22614;-79
2023/09/30 03:14:20;;;;;;;22.50;16.00;;;;;;;12.79;100.00;99098.13;135938;1275;23009;-79
2023/09/30 03:17:22;;;;;;;27.30;16.60;;;;;;;12.79;100.00;99097.27;136016;1275;23024;-80
2023/09/30 03:20:25;;;;;;;27.20;16.90;;;;;;;12.78;100.00;99097.60;135840;1275;22539;-78
2023/09/30 03:23:28;;;;;;;18.00;16.10;;;;;;;12.79;100.00;99100.58;136702;1275;22539;-78
2023/09/30 03:26:33;;;;;;;28.30;17.50;;;;;;;12.79;100.00;99098.83;136791;1275;22572;-77
2023/09/30 03:29:34;;;;;;;;;;;;;;;12.80;100.00;99097.79;135775;1275;22564;-78
2023/09/30 03:32:36;;;;;;;28.80;17.00;;;;;;;12.81;100.00;99094.83;136427;1275;22590;-77
2023/09/30 03:35:37;;;;;;;22.40;15.60;;;;;;;12.82;100.00;99098.67;136228;1275;22614;-79
2023/09/30 03:38:39;;;;;;;23.40;16.80;;;;;;;12.82;100.00;99103.58;136170;1275;22589;-83
2023/09/30 03:41:44;;;;;;;24.10;15.80;;;;;;;12.84;100.00;99099.03;135750;1275;24241;-77
2023/09/30 03:44:45;;;;;;;24.60;17.50;;;;;;;12.84;100.00;99101.84;135764;1275;22537;-81
2023/09/30 03:47:48;;;;;;;26.30;17.10;;;;;;;12.88;100.00;99103.08;135717;1275;22598;-79
2023/09/30 03:50:49;;;;;;;22.40;16.40;;;;;;;12.91;100.00;99097.34;135838;1275;22924;-79
2023/09/30 03:53:50;;;;;;;27.10;17.50;;;;;;;12.93;100.00;99098.40;135973;1267;22637;-78
2023/09/30 03:56:51;;;;;;;23.10;16.20;;;;;;;12.95;100.00;99098.42;136188;1274;25554;-78
2023/09/30 03:59:53;;;;;;;21.50;17.80;;;;;;;12.97;100.00;99095.63;135835;1274;22533;-79
2023/09/30 04:02:58;;;;;;;23.00;17.00;;;;;;;12.98;100.00;99093.02;136559;1274;22576;-82
2023/09/30 04:06:02;;;;;;;23.40;16.60;;;;;;;13.00;100.00;99094.61;135817;1274;22536;-79
2023/09/30 04:09:09;;;;;;;18.00;15.70;;;;;;;13.03;100.00;99093.44;136007;1274;22992;-80
2023/09/30 04:12:12;;;;;;;18.30;16.40;;;;;;;13.03;100.00;99097.27;136269;1274;22230;-80
2023/09/30 04:15:13;;;;;;;20.60;17.70;;;;;;;13.03;100.00;99095.18;137037;1274;22589;-80
2023/09/30 04:18:14;;;;;;;30.60;17.50;;;;;;;13.05;100.00;99100.08;136442;1274;22294;-81
2023/09/30 04:21:15;;;;;;;22.70;17.50;;;;;;;13.09;100.00;99104.81;136276;1274;22548;-80
2023/09/30 04:24:19;;;;;;;21.10;16.80;;;;;;;13.12;100.00;99109.73;136324;1274;22585;-79
2023/09/30 04:27:22;;;;;;;26.00;18.40;;;;;;;13.13;100.00;99110.08;136859;1274;22165;-79
2023/09/30 04:30:23;;;;;;;25.50;17.20;;;;;;;13.16;100.00;99116.59;136747;1274;22563;-79
2023/09/30 04:33:25;;;;;;;23.10;17.30;;;;;;;13.21;100.00;99118.02;136963;1275;22684;-80
2023/09/30 04:36:26;;;;;;;24.20;16.30;;;;;;;13.24;100.00;99123.11;137131;1274;22165;-79
2023/09/30 04:39:27;;;;;;;21.10;17.10;;;;;;;13.28;100.00;99121.91;137203;1275;22268;-79
2023/09/30 04:42:28;;;;;;;25.20;16.30;;;;;;;13.32;100.00;99122.98;136836;1275;22550;-79
2023/09/30 04:45:29;;;;;;;23.80;16.60;;;;;;;13.33;100.00;99128.59;136569;1268;23287;-79
2023/09/30 04:48:32;;;;;;;19.50;16.20;;;;;;;13.36;100.00;99130.86;136927;1274;22207;-80
2023/09/30 04:51:33;;;;;;;21.00;16.30;;;;;;;13.38;100.00;99135.42;136798;1275;22425;-80
2023/09/30 04:54:35;;;;;;;21.60;15.70;;;;;;;13.42;100.00;99139.64;136818;1275;22580;-84
2023/09/30 04:57:37;;;;;;;22.80;15.80;;;;;;;13.43;100.00;99143.48;137051;1275;23018;-80
2023/09/30 05:00:39;;;;;;;20.70;16.50;;;;;;;13.43;100.00;99145.59;136858;1274;22731;-80
2023/09/30 05:03:40;;;;;;;26.20;17.50;;;;;;;13.43;100.00;99146.28;136778;1274;22544;-79
2023/09/30 05:06:41;;;;;;;20.40;16.90;;;;;;;13.44;100.00;99149.78;137190;1275;22196;-79
2023/09/30 05:09:43;;;;;;;20.10;15.90;;;;;;;13.47;100.00;99154.70;136813;1274;22467;-81
2023/09/30 05:12:45;;;;;;;24.50;16.20;;;;;;;13.51;100.00;99156.29;136718;1274;22547;-81
2023/09/30 05:15:46;;;;;;;29.70;17.70;;;;;;;13.57;100.00;99158.07;137356;1274;22331;-82
2023/09/30 05:18:48;;;;;;;23.90;17.30;;;;;;;14.64;100.00;99166.62;137340;1275;22700;-81
2023/09/30 05:21:49;;;;;;;31.70;16.80;;;;;;;16.00;100.00;99162.73;136872;1274;22359;-82
2023/09/30 05:24:51;;;;;;;24.90;16.90;;;;;;;16.98;100.00;99161.61;137296;1275;22573;-82
2023/09/30 05:27:53;;;;;;;25.10;14.90;;;;;;;17.73;100.00;99163.52;136897;1274;22216;-82
2023/09/30 05:30:54;;;;;;;25.70;14.90;;;;;;;18.28;100.00;99167.42;136700;1274;22129;-82
2023/09/30 05:33:56;;;;;;;24.80;15.10;;;;;;;18.75;100.00;99169.76;137056;1274;22565;-82
2023/09/30 05:36:57;;;;;;;21.50;14.40;;;;;;;19.08;100.00;99174.34;137000;1275;22594;-83
2023/09/30 05:39:59;;;;;;;27.60;14.60;;;;;;;19.33;100.00;99182.55;137149;1274;22217;-82
2023/09/30 05:43:00;;;;;;;21.40;17.00;;;;;;;19.52;100.00;99188.38;136913;1274;22618;-80
2023/09/30 05:46:02;;;;;;;38.90;17.00;;;;;;;19.72;100.00;99193.31;137211;1274;22395;-83
2023/09/30 05:49:09;;;;;;;25.40;14.90;;;;;;;19.84;100.00;99197.33;136812;1274;22174;-82
2023/09/30 05:52:10;;;;;;;18.00;14.10;;;;;;;19.91;100.00;99199.66;136529;1274;23088;-82
2023/09/30 05:55:11;;;;;;;18.00;13.70;;;;;;;20.06;100.00;99196.38;137293;1274;22270;-83
2023/09/30 05:58:13;;;;;;;21.40;14.80;;;;;;;20.21;100.00;99193.05;136706;1274;22257;-82
2023/09/30 06:01:18;;;;;;;19.30;14.20;;;;;;;20.30;100.00;99188.77;136730;1275;22647;-80
2023/09/30 06:04:20;;;;;;;24.30;14.20;;;;;;;20.39;100.00;99190.54;137257;1274;22227;-83
2023/09/30 06:07:22;;;;;;;20.30;15.60;;;;;;;20.45;100.00;99192.73;137023;1275;22884;-83
2023/09/30 06:10:23;;;;;;;16.00;13.50;;;;;;;20.45;100.00;99192.38;136677;1274;22566;-83
2023/09/30 06:13:28;;;;;;;18.10;13.70;;;;;;;20.53;100.00;99192.55;136971;1274;25216;-85
2023/09/30 06:16:31;;;;;;;19.10;16.90;;;;;;;20.59;100.00;99194.52;136907;1271;22696;-83
2023/09/30 06:19:32;;;;;;;29.60;15.60;;;;;;;20.69;100.00;99196.25;136726;1275;22560;-82
2023/09/30 06:22:33;;;;;;;19.20;13.80;;;;;;;20.74;100.00;99195.41;136957;1274;22550;-85
2023/09/30 06:25:35;;;;;;;16.30;13.30;;;;;;;20.76;100.00;99197.14;137017;1275;22312;-85
2023/09/30 06:28:40;;;;;;;20.80;14.10;;;;;;;20.78;100.00;99201.50;136540;1275;22534;-84
2023/09/30 06:31:41;;;;;;;18.80;14.20;;;;;;;20.79;100.00;99210.34;136689;1274;22542;-87
2023/09/30 06:34:46;;;;;;;21.40;14.00;;;;;;;20.87;100.00;99212.29;137264;1274;22829;-85
2023/09/30 06:37:48;;;;;;;20.40;14.00;;;;;;;20.82;100.00;99216.46;136726;1275;22218;-83
2023/09/30 06:40:49;;;;;;;16.20;14.10;;;;;;;20.04;100.00;99221.65;136712;1271;22228;-82
2023/09/30 06:43:51;;;;;;;19.50;14.10;;;;;;;19.29;100.00;99230.08;137023;1275;22425;-83
2023/09/30 06:46:54;;;;;;;20.30;15.50;;;;;;;18.58;100.00;99227.98;136787;1275;22597;-83
2023/09/30 06:49:56;;;;;;;24.20;17.80;;;;;;;18.06;100.00;99232.34;136818;1275;22172;-83
2023/09/30 06:52:57;;;;;;;19.60;16.40;;;;;;;17.73;100.00;99225.31;137095;1275;22567;-83
2023/09/30 06:55:58;;;;;;;20.40;15.90;;;;;;;17.50;100.00;99238.38;136789;1275;22263;-83
2023/09/30 06:58:59;;;;;;;18.50;15.50;;;;;;;17.25;100.00;99239.46;136709;1275;22829;-83
2023/09/30 07:02:00;;;;;;;22.10;16.40;;;;;;;17.05;100.00;99247.19;137018;1275;22551;-83
2023/09/30 07:05:02;;;;;;;20.50;17.20;;;;;;;16.88;100.00;99253.46;137120;1261;22288;-82
2023/09/30 07:08:03;;;;;;;23.50;18.00;;;;;;;16.75;100.00;99257.77;136803;1275;22239;-80
2023/09/30 07:11:05;;;;;;;21.90;18.30;;;;;;;16.71;100.00;99261.14;136880;1271;23069;-82
2023/09/30 07:14:06;;;;;;;28.30;21.60;;;;;;;16.64;100.00;99266.61;137147;1275;22200;-80
2023/09/30 07:17:08;;;;;;;26.70;22.60;;;;;;;16.58;100.00;99273.48;136665;1271;22281;-81
2023/09/30 07:20:10;;;;;;;30.60;24.00;;;;;;;16.50;100.00;99277.91;136701;1275;22876;-80
2023/09/30 07:23:13;;;;;;;28.90;24.40;;;;;;;16.49;100.00;99284.07;137403;1275;22314;-81
2023/09/30 07:26:14;;;;;;;27.90;24.70;;;;;;;16.52;100.00;99281.42;136768;1275;22213;-82
2023/09/30 07:29:18;;;;;;;28.40;24.20;;;;;;;16.63;100.00;99284.02;136779;1274;22160;-81
2023/09/30 07:32:19;;;;;;;29.30;25.70;;;;;;;16.76;100.00;99281.15;137205;1274;22566;-83
2023/09/30 07:35:20;;;;;;;26.90;23.10;;;;;;;16.86;100.00;99279.32;136617;1274;22538;-80
2023/09/30 07:38:21;;;;;;;25.40;21.40;;;;;;;16.95;100.00;99279.27;136484;1274;22557;-80
2023/09/30 07:41:23;;;;;;;25.00;21.10;;;;;;;17.03;100.00;99282.54;137082;1274;22537;-80
2023/09/30 07:44:24;;;;;;;31.20;27.50;;;;;;;17.12;100.00;99280.71;136899;1274;22307;-80
2023/09/30 07:47:25;;;;;;;24.30;20.80;;;;;;;17.21;100.00;99284.70;136631;1274;22521;-81
2023/09/30 07:50:27;;;;;;;29.20;21.40;;;;;;;17.29;100.00;99283.75;137039;1274;22530;-81
2023/09/30 07:53:28;;;;;;;32.30;22.70;;;;;;;17.31;100.00;99283.21;136938;1274;22291;-81
2023/09/30 07:56:29;;;;;;;26.40;22.60;;;;;;;17.34;100.00;99278.80;136706;1274;22469;-81
2023/09/30 07:59:33;;;;;;;33.50;24.40;;;;;;;17.34;100.00;99282.67;137136;1274;25133;-81
2023/09/30 08:02:36;;;;;;;31.10;24.70;;;;;;;17.36;100.00;99285.30;137071;1274;22894;-79
2023/09/30 08:05:37;;;;;;;27.20;24.30;;;;;;;17.37;100.00;99286.00;136849;1274;22288;-80
2023/09/30 08:08:38;;;;;;;27.00;23.40;;;;;;;17.35;100.00;99292.88;137184;1274;22604;-82
2023/09/30 08:11:40;;;;;;;28.80;25.70;;;;;;;17.29;100.00;99295.89;137120;1274;22319;-80
2023/09/30 08:14:44;;;;;;;28.90;22.90;;;;;;;17.32;100.00;99293.93;136659;1274;22271;-80
2023/09/30 08:17:45;;;;;;;26.60;22.60;;;;;;;17.37;100.00;99293.91;136595;1274;22569;-79
2023/09/30 08:20:46;;;;;;;25.80;19.30;;;;;;;17.47;100.00;99296.29;137339;1274;22269;-80
2023/09/30 08:23:47;;;;;;;24.90;22.30;;;;;;;17.55;100.00;99295.17;136563;1271;22212;-81
2023/09/30 08:26:51;;;;;;;26.50;21.10;;;;;;;17.83;100.00;99297.91;136606;1274;22561;-82
2023/09/30 08:29:53;;;;;;;20.10;18.10;;;;;;;18.66;100.00;99299.43;137255;1274;22270;-82
2023/09/30 08:32:54;;;;;;;21.30;18.00;;;;;;;19.21;100.00;99310.49;136753;1274;22250;-82
2023/09/30 08:35:55;;;;;;;23.90;17.70;;;;;;;19.67;100.00;99308.01;136746;1274;22445;-83
2023/09/30 08:38:56;;;;;;;21.70;16.90;;;;;;;19.86;100.00;99307.65;137309;1274;22380;-83
2023/09/30 08:41:57;;;;;;;22.00;16.90;;;;;;;20.19;100.00;99310.05;137268;1274;22182;-83
2023/09/30 08:44:59;;;;;;;20.50;17.70;;;;;;;20.47;100.00;99306.17;137299;1274;22413;-83
2023/09/30 08:48:05;;;;;;;20.10;17.20;;;;;;;20.63;100.00;99302.82;137299;1275;22565;-83
2023/09/30 08:51:06;;;;;;;20.60;16.40;;;;;;;20.80;100.00;99300.17;136976;1275;22589;-83
2023/09/30 08:54:07;;;;;;;18.50;15.30;;;;;;;20.79;100.00;99296.47;136800;1275;22583;-83
2023/09/30 08:57:11;;;;;;;;;;;;;;;20.93;100.00;99296.36;136913;1275;22521;-82
2023/09/30 09:00:12;;;;;;;19.30;15.90;;;;;;;21.05;100.00;99295.55;137306;1274;22262;-82
2023/09/30 09:03:13;;;;;;;26.30;21.20;;;;;;;21.20;100.00;99295.70;137210;1275;22746;-82
2023/09/30 09:06:15;;;;;;;19.40;17.40;;;;;;;21.35;100.00;99298.20;136784;1274;24235;-82
2023/09/30 09:09:17;;;;;;;19.20;15.50;;;;;;;21.46;100.00;99297.94;137298;1275;22549;-83
2023/09/30 09:12:18;;;;;;;17.90;16.00;;;;;;;21.28;100.00;99301.74;136761;1265;22372;-81
2023/09/30 09:15:19;;;;;;;19.50;17.50;;;;;;;21.18;100.00;99299.84;136885;1275;22270;-81
2023/09/30 09:18:20;;;;;;;20.70;17.80;;;;;;;21.26;100.00;99300.39;136962;1271;22703;-82
2023/09/30 09:21:22;;;;;;;19.90;17.30;;;;;;;21.14;100.00;99298.86;136910;1275;23007;-82
2023/09/30 09:24:24;;;;;;;18.50;15.90;;;;;;;21.10;100.00;99299.32;137177;1275;22683;-82
2023/09/30 09:27:25;;;;;;;21.30;18.50;;;;;;;21.11;100.00;99308.14;137454;1275;22119;-80
2023/09/30 09:30:26;;;;;;;19.80;17.70;;;;;;;20.87;100.00;99301.24;137314;1275;22304;-82
2023/09/30 09:33:27;;;;;;;21.40;19.10;;;;;;;20.65;100.00;99304.90;137194;1275;22392;-79
2023/09/30 09:36:28;;;;;;;28.70;20.00;;;;;;;20.03;100.00;99310.01;137445;1275;22135;-79
2023/09/30 09:39:30;;;;;;;26.30;20.20;;;;;;;19.51;100.00;99315.49;137450;1275;22275;-80
2023/09/30 09:42:32;;;;;;;26.80;21.70;;;;;;;19.18;100.00;99318.66;136936;1271;22364;-79
2023/09/30 09:45:33;;;;;;;24.00;21.40;;;;;;;18.93;100.00;99325.35;137423;1275;22123;-80
2023/09/30 09:48:34;;;;;;;27.20;22.80;;;;;;;18.71;100.00;99325.31;137379;1275;22329;-79
2023/09/30 09:51:35;;;;;;;30.50;23.50;;;;;;;18.62;100.00;99330.35;136749;1275;22282;-80
2023/09/30 09:54:36;;;;;;;27.60;23.50;;;;;;;18.61;100.00;99334.23;136856;1275;22496;-79
2023/09/30 09:57:38;;;;;;;30.10;24.80;;;;;;;18.63;100.00;99335.63;136828;1275;22190;-78
2023/09/30 10:00:39;;;;;;;30.30;26.20;;;;;;;18.74;100.00;99331.96;137375;1271;22158;-79
2023/09/30 10:03:40;;;;;;;29.00;23.60;;;;;;;18.87;100.00;99331.27;137390;1275;22097;-79
2023/09/30 10:06:42;;;;;;;32.70;23.70;;;;;;;19.03;100.00;99327.15;136841;1275;22536;-79
2023/09/30 10:09:45;;;;;;;28.40;24.30;;;;;;;19.20;100.00;99321.81;136899;1275;22218;-80
2023/09/30 10:12:46;;;;;;;25.20;22.50;;;;;;;19.28;100.00;99325.04;137354;1275;22376;-80
2023/09/30 10:15:48;;;;;;;26.90;23.60;;;;;;;19.32;100.00;99328.14;137313;1275;22906;-80
2023/09/30 10:18:49;;;;;;;22.80;20.40;;;;;;;19.41;100.00;99329.42;137336;1275;22853;-80
2023/09/30 10:21:50;;;;;;;35.60;21.20;;;;;;;19.52;100.00;99331.55;136750;1275;22221;-80
2023/09/30 10:24:52;;;;;;;26.50;21.10;;;;;;;19.68;100.00;99335.17;137298;1275;22108;-80
2023/09/30 10:27:54;;;;;;;29.50;22.00;;;;;;;19.80;100.00;99333.73;137304;1268;22316;-80
2023/09/30 10:30:55;;;;;;;27.60;20.30;;;;;;;19.79;100.00;99326.67;137303;1275;22228;-80
2023/09/30 10:33:56;;;;;;;27.80;21.10;;;;;;;19.78;100.00;99322.47;137290;1275;22258;-80
2023/09/30 10:36:58;;;;;;;24.90;20.10;;;;;;;19.88;100.00;99320.88;137302;1273;22212;-80
2023/09/30 10:39:59;;;;;;;26.70;20.10;;;;;;;20.00;100.00;99316.27;137285;1275;22265;-80
2023/09/30 10:43:00;;;;;;;24.00;18.90;;;;;;;20.13;100.00;99317.79;137013;1275;22414;-80
2023/09/30 10:46:01;;;;;;;22.10;19.70;;;;;;;20.14;100.00;99318.11;137180;1275;23275;-80
2023/09/30 10:49:02;;;;;;;26.40;19.90;;;;;;;20.21;100.00;99318.69;136811;1275;22257;-80
2023/09/30 10:52:06;;;;;;;23.00;19.30;;;;;;;20.31;100.00;99314.77;136796;1275;22247;-81
2023/09/30 10:55:07;;;;;;;20.70;18.30;;;;;;;20.43;100.00;99317.76;137095;1275;22536;-80
2023/09/30 10:58:09;;;;;;;22.90;18.30;;;;;;;20.43;100.00;99320.94;137097;1275;22660;-80
2023/09/30 11:01:10;;;;;;;26.20;18.40;;;;;;;20.33;100.00;99318.63;136760;1275;22242;-80
2023/09/30 11:04:11;;;;;;;20.80;18.10;;;;;;;20.23;100.00;99312.46;136876;1275;22949;-81
2023/09/30 11:07:13;;;;;;;24.70;17.50;;;;;;;20.09;100.00;99312.73;137184;1274;22257;-79
2023/09/30 11:10:14;;;;;;;25.90;15.00;;;;;;;19.94;100.00;99309.29;136331;1275;25409;-81
2023/09/30 11:13:15;;;;;;;25.70;16.70;;;;;;;20.28;100.00;99315.37;136526;1275;22567;-82
2023/09/30 11:16:17;;;;;;;25.60;15.10;;;;;;;20.63;100.00;99318.75;136500;1275;22549;-80
2023/09/30 11:19:20;;;;;;;21.20;15.40;;;;;;;20.89;100.00;99316.23;136277;1275;22545;-81
2023/09/30 11:22:21;;;;;;;21.10;14.70;;;;;;;21.10;100.00;99320.22;137088;1275;22554;-81
2023/09/30 11:25:24;;;;;;;20.50;15.10;;;;;;;21.10;100.00;99330.64;136950;1275;22282;-81
2023/09/30 11:28:26;;;;;;;20.90;15.70;;;;;;;20.44;100.00;99335.55;137330;1275;22227;-81
2023/09/30 11:31:29;;;;;;;24.80;16.50;;;;;;;19.97;100.00;99333.61;137327;1263;22067;-82
2023/09/30 11:34:32;;;;;;;19.80;17.00;;;;;;;19.67;100.00;99334.65;137362;1275;22210;-81
2023/09/30 11:37:33;;;;;;;23.30;17.10;;;;;;;19.41;100.00;99336.84;137035;1275;22428;-81
2023/09/30 11:40:34;;;;;;;24.20;19.00;;;;;;;19.18;100.00;99338.60;136695;1275;23134;-81
2023/09/30 11:43:35;;;;;;;23.20;18.20;;;;;;;19.01;100.00;99331.23;137320;1275;22205;-82
2023/09/30 11:46:36;;;;;;;26.70;20.50;;;;;;;18.93;100.00;99330.29;136764;1275;22242;-82
2023/09/30 11:49:38;;;;;;;28.10;20.80;;;;;;;18.95;100.00;99337.67;136612;1275;22561;-81
2023/09/30 11:52:41;;;;;;;24.30;18.70;;;;;;;18.93;100.00;99342.11;137217;1275;23218;-82
2023/09/30 11:55:43;;;;;;;25.80;19.90;;;;;;;18.89;100.00;99343.57;136800;1275;22524;-83
2023/09/30 11:58:44;;;;;;;26.90;20.10;;;;;;;18.70;100.00;99344.71;136689;1275;22589;-83
2023/09/30 12:01:45;;;;;;;26.00;18.00;;;;;;;18.63;100.00;99345.66;137034;1275;22749;-84
2023/09/30 12:04:46;;;;;;;23.40;17.10;;;;;;;18.79;100.00;99349.35;136932;1275;22671;-83
2023/09/30 12:07:48;;;;;;;20.80;15.20;;;;;;;18.88;100.00;99347.64;136852;1275;22252;-83
2023/09/30 12:10:49;;;;;;;20.40;14.90;;;;;;;18.84;100.00;99346.11;136788;1275;22537;-84
2023/09/30 12:13:50;;;;;;;21.20;14.80;;;;;;;18.87;100.00;99340.06;137171;1275;22147;-83
2023/09/30 12:16:51;;;;;;;17.00;11.60;;;;;;;19.04;100.00;99341.43;136793;1275;22202;-84
2023/09/30 12:19:52;;;;;;;19.90;11.50;;;;;;;19.10;100.00;99349.30;136685;1275;22978;-82
2023/09/30 12:22:54;;;;;;;13.30;10.10;;;;;;;19.19;100.00;99359.23;137360;1274;23001;-82
2023/09/30 12:25:55;;;;;;;14.40;8.70;;;;;;;19.34;100.00;99363.59;136725;1274;22227;-83
2023/09/30 12:28:56;;;;;;;13.00;7.60;;;;;;;19.36;100.00;99367.61;136645;1274;22214;-83
2023/09/30 12:31:57;;;;;;;15.10;7.50;;;;;;;19.48;100.00;99363.73;137157;1274;23106;-84
2023/09/30 12:34:58;;;;;;;9.30;7.00;;;;;;;19.65;100.00;99370.00;136853;1274;22750;-81
2023/09/30 12:38:01;;;;;;;13.40;7.60;;;;;;;19.51;100.00;99385.39;136592;1263;22544;-82
2023/09/30 12:41:03;;;;;;;16.00;8.90;;;;;;;19.44;100.00;99385.67;137057;1274;22546;-83
2023/09/30 12:44:04;;;;;;;14.50;7.00;;;;;;;19.26;100.00;99386.83;136966;1274;22304;-83
2023/09/30 12:47:06;;;;;;;14.10;6.90;;;;;;;19.06;100.00;99397.14;136687;1274;22561;-82
2023/09/30 12:50:09;;;;;;;9.50;7.10;;;;;;;18.87;100.00;99392.80;136760;1274;23325;-82
2023/09/30 12:53:10;;;;;;;12.60;6.50;;;;;;;18.94;100.00;99396.77;137176;1274;22870;-81
2023/09/30 12:56:11;;;;;;;8.70;5.90;;;;;;;18.78;100.00;99397.14;136774;1274;22677;-81
2023/09/30 12:59:12;;;;;;;11.10;7.00;;;;;;;18.54;100.00;99401.12;136847;1274;26129;-80
2023/09/30 13:02:13;;;;;;;9.50;6.20;;;;;;;18.37;100.00;99400.23;137162;1274;22210;-81
2023/09/30 13:05:16;;;;;;;9.10;6.20;;;;;;;18.21;100.00;99402.15;136701;1274;22840;-81
2023/09/30 13:08:18;;;;;;;9.20;5.70;;;;;;;18.13;100.00;99403.63;136721;1274;22588;-81
2023/09/30 13:11:19;;;;;;;10.20;5.00;;;;;;;18.24;100.00;99400.20;137226;1274;22616;-81
2023/09/30 13:14:20;;;;;;;7.00;4.70;;;;;;;18.36;100.00;99399.89;136737;1274;22148;-80
2023/09/30 13:17:22;;;;;;;10.60;5.30;;;;;;;18.39;100.00;99400.73;136804;1274;22360;-80
2023/09/30 13:20:23;;;;;;;13.20;4.60;;;;;;;18.46;100.00;99402.43;137020;1274;22571;-82
2023/09/30 13:23:24;;;;;;;8.90;4.60;;;;;;;18.51;100.00;99401.67;136998;1274;22628;-81
2023/09/30 13:26:25;;;;;;;7.40;4.00;;;;;;;18.68;100.00;99394.63;136807;1275;22284;-81
2023/09/30 13:29:27;;;;;;;9.90;3.90;;;;;;;18.71;100.00;99398.98;136784;1274;22719;-82
2023/09/30 13:32:29;;;;;;;8.80;4.30;;;;;;;18.56;100.00;99403.73;137031;1273;22436;-80
2023/09/30 13:35:30;;;;;;;7.10;3.90;;;;;;;18.46;100.00;99413.17;136620;1275;22292;-80